createdAt,value
2016-08-24T00:00:17.087Z,0
2016-08-24T00:01:18.482Z,0
2016-08-24T00:02:17.793Z,0
2016-08-24T00:03:18.476Z,0
2016-08-24T00:04:17.755Z,0
2016-08-24T00:05:18.467Z,0
2016-08-24T00:06:17.042Z,0
2016-08-24T00:07:17.736Z,0
2016-08-24T00:08:18.454Z,0
2016-08-24T00:09:17.724Z,0
2016-08-24T00:10:17.001Z,0
2016-08-24T00:11:17.004Z,0
2016-08-24T00:12:17.696Z,0
2016-08-24T00:13:17.685Z,0
2016-08-24T00:14:18.393Z,0
2016-08-24T00:15:19.092Z,0
2016-08-24T00:16:18.367Z,0
2016-08-24T00:17:18.376Z,0
2016-08-24T00:18:18.360Z,0
2016-08-24T00:19:18.355Z,0
2016-08-24T00:20:17.654Z,0
2016-08-24T00:21:17.632Z,0
2016-08-24T00:22:18.334Z,0
2016-08-24T00:23:17.621Z,0
2016-08-24T00:24:17.611Z,0
2016-08-24T00:25:18.326Z,0
2016-08-24T00:26:18.311Z,0
2016-08-24T00:27:17.576Z,0
2016-08-24T00:28:17.625Z,0
2016-08-24T00:29:18.270Z,0
2016-08-24T00:30:16.848Z,0
2016-08-24T00:31:17.556Z,0
2016-08-24T00:32:17.544Z,0
2016-08-24T00:33:17.539Z,0
2016-08-24T00:34:18.239Z,0
2016-08-24T00:35:17.527Z,0
2016-08-24T00:36:17.512Z,0
2016-08-24T00:37:18.217Z,0
2016-08-24T00:38:17.493Z,0
2016-08-24T00:39:17.543Z,0
2016-08-24T00:40:16.770Z,0
2016-08-24T00:41:18.896Z,0
2016-08-24T00:42:18.185Z,0
2016-08-24T00:43:16.754Z,0
2016-08-24T00:44:18.164Z,0
2016-08-24T00:45:17.448Z,0
2016-08-24T00:46:18.150Z,0
2016-08-24T00:47:18.137Z,0
2016-08-24T00:48:16.723Z,0
2016-08-24T00:49:16.701Z,0
2016-08-24T00:50:17.409Z,0
2016-08-24T00:51:18.105Z,0
2016-08-24T00:52:17.388Z,0
2016-08-24T00:53:18.850Z,0
2016-08-24T00:54:16.695Z,0
2016-08-24T00:55:18.071Z,0
2016-08-24T00:56:18.778Z,0
2016-08-24T00:57:18.055Z,0
2016-08-24T00:58:16.635Z,0
2016-08-24T00:59:17.353Z,0
2016-08-24T01:00:17.318Z,0
2016-08-24T01:01:17.343Z,0
2016-08-24T01:02:17.311Z,0
2016-08-24T01:03:18.715Z,0
2016-08-24T01:04:18.004Z,0
2016-08-24T01:05:16.577Z,0
2016-08-24T01:06:16.568Z,0
2016-08-24T01:07:17.989Z,0
2016-08-24T01:08:16.556Z,0
2016-08-24T01:09:16.542Z,0
2016-08-24T01:10:17.952Z,0
2016-08-24T01:11:17.235Z,0
2016-08-24T01:12:17.235Z,0
2016-08-24T01:13:17.938Z,0
2016-08-24T01:14:17.919Z,0
2016-08-24T01:15:16.501Z,0
2016-08-24T01:16:16.493Z,0
2016-08-24T01:17:17.191Z,0
2016-08-24T01:18:17.184Z,0
2016-08-24T01:19:18.591Z,0
2016-08-24T01:20:17.892Z,0
2016-08-24T01:21:17.872Z,0
2016-08-24T01:22:16.444Z,0
2016-08-24T01:23:17.146Z,0
2016-08-24T01:24:17.842Z,0
2016-08-24T01:25:16.417Z,0
2016-08-24T01:26:16.414Z,0
2016-08-24T01:27:17.817Z,0
2016-08-24T01:28:17.099Z,0
2016-08-24T01:29:17.092Z,0
2016-08-24T01:30:18.503Z,0
2016-08-24T01:31:17.077Z,0
2016-08-24T01:32:18.488Z,0
2016-08-24T01:33:17.060Z,0
2016-08-24T01:34:17.767Z,0
2016-08-24T01:35:16.342Z,0
2016-08-24T01:36:18.456Z,0
2016-08-24T01:37:16.329Z,0
2016-08-24T01:38:17.727Z,0
2016-08-24T01:39:17.715Z,0
2016-08-24T01:40:17.714Z,0
2016-08-24T01:41:17.712Z,0
2016-08-24T01:42:16.988Z,0
2016-08-24T01:43:17.701Z,0
2016-08-24T01:44:16.974Z,0
2016-08-24T01:45:16.969Z,0
2016-08-24T01:46:16.968Z,0
2016-08-24T01:47:18.359Z,0
2016-08-24T01:48:16.941Z,0
2016-08-24T01:49:16.934Z,0
2016-08-24T01:50:17.628Z,0
2016-08-24T01:51:16.210Z,0
2016-08-24T01:52:16.208Z,0
2016-08-24T01:53:16.900Z,0
2016-08-24T01:54:16.395Z,0
2016-08-24T01:55:16.889Z,0
2016-08-24T01:56:17.579Z,0
2016-08-24T01:57:16.869Z,0
2016-08-24T01:58:17.566Z,0
2016-08-24T01:59:16.855Z,0
2016-08-24T02:00:18.261Z,0
2016-08-24T02:01:16.835Z,0
2016-08-24T02:02:16.834Z,0
2016-08-24T02:03:16.834Z,0
2016-08-24T02:04:17.512Z,0
2016-08-24T02:05:16.800Z,0
2016-08-24T02:06:16.082Z,0
2016-08-24T02:07:16.073Z,0
2016-08-24T02:08:18.193Z,0
2016-08-24T02:09:16.769Z,0
2016-08-24T02:10:17.478Z,0
2016-08-24T02:11:18.171Z,0
2016-08-24T02:12:17.460Z,0
2016-08-24T02:13:17.461Z,0
2016-08-24T02:14:17.452Z,0
2016-08-24T02:15:16.721Z,0
2016-08-24T02:16:16.004Z,0
2016-08-24T02:17:15.996Z,0
2016-08-24T02:18:18.105Z,0
2016-08-24T02:19:15.979Z,0
2016-08-24T02:20:17.388Z,0
2016-08-24T02:21:15.969Z,0
2016-08-24T02:22:16.661Z,0
2016-08-24T02:23:16.652Z,0
2016-08-24T02:24:15.931Z,0
2016-08-24T02:25:16.636Z,0
2016-08-24T02:26:16.628Z,0
2016-08-24T02:27:16.635Z,0
2016-08-24T02:28:16.627Z,0
2016-08-24T02:29:16.602Z,0
2016-08-24T02:30:16.599Z,0
2016-08-24T02:31:16.585Z,0
2016-08-24T02:32:17.990Z,0
2016-08-24T02:33:16.581Z,0
2016-08-24T02:34:15.862Z,0
2016-08-24T02:35:17.257Z,0
2016-08-24T02:36:16.554Z,0
2016-08-24T02:37:16.531Z,0
2016-08-24T02:38:17.228Z,0
2016-08-24T02:39:17.239Z,0
2016-08-24T02:40:17.243Z,0
2016-08-24T02:41:15.798Z,0
2016-08-24T02:42:15.796Z,0
2016-08-24T02:43:17.900Z,0
2016-08-24T02:44:15.768Z,0
2016-08-24T02:45:16.468Z,0
2016-08-24T02:46:16.461Z,0
2016-08-24T02:47:16.451Z,0
2016-08-24T02:48:16.440Z,0
2016-08-24T02:49:16.428Z,0
2016-08-24T02:50:16.428Z,0
2016-08-24T02:51:17.123Z,0
2016-08-24T02:52:17.110Z,0
2016-08-24T02:53:16.400Z,0
2016-08-24T02:54:17.109Z,0
2016-08-24T02:55:17.800Z,0
2016-08-24T02:56:17.088Z,0
2016-08-24T02:57:16.375Z,0
2016-08-24T02:58:17.078Z,0
2016-08-24T02:59:17.072Z,0
2016-08-24T03:00:16.340Z,0
2016-08-24T03:01:17.046Z,0
2016-08-24T03:02:17.082Z,0
2016-08-24T03:03:16.320Z,0
2016-08-24T03:04:16.305Z,0
2016-08-24T03:05:17.009Z,0
2016-08-24T03:06:17.003Z,0
2016-08-24T03:07:16.304Z,0
2016-08-24T03:08:17.009Z,0
2016-08-24T03:09:16.356Z,0
2016-08-24T03:10:16.969Z,0
2016-08-24T03:11:17.682Z,0
2016-08-24T03:12:16.942Z,0
2016-08-24T03:13:16.234Z,0
2016-08-24T03:14:16.930Z,0
2016-08-24T03:15:16.218Z,0
2016-08-24T03:16:15.494Z,0
2016-08-24T03:17:15.488Z,0
2016-08-24T03:18:16.897Z,0
2016-08-24T03:19:16.890Z,0
2016-08-24T03:20:15.467Z,0
2016-08-24T03:21:17.582Z,0
2016-08-24T03:22:16.861Z,0
2016-08-24T03:23:16.143Z,0
2016-08-24T03:24:16.136Z,0
2016-08-24T03:25:16.825Z,0
2016-08-24T03:26:16.821Z,0
2016-08-24T03:27:16.115Z,0
2016-08-24T03:28:16.802Z,0
2016-08-24T03:29:16.807Z,0
2016-08-24T03:30:17.500Z,0
2016-08-24T03:31:16.073Z,0
2016-08-24T03:32:16.065Z,0
2016-08-24T03:33:16.054Z,0
2016-08-24T03:34:16.042Z,0
2016-08-24T03:35:16.766Z,0
2016-08-24T03:36:16.029Z,0
2016-08-24T03:37:15.309Z,0
2016-08-24T03:38:16.722Z,0
2016-08-24T03:39:16.000Z,0
2016-08-24T03:40:15.992Z,0
2016-08-24T03:41:16.719Z,0
2016-08-24T03:42:16.698Z,0
2016-08-24T03:43:15.967Z,0
2016-08-24T03:44:15.968Z,0
2016-08-24T03:45:15.944Z,0
2016-08-24T03:46:16.642Z,0
2016-08-24T03:47:15.238Z,0
2016-08-24T03:48:15.933Z,0
2016-08-24T03:49:15.204Z,0
2016-08-24T03:50:15.911Z,0
2016-08-24T03:51:17.310Z,0
2016-08-24T03:52:15.889Z,0
2016-08-24T03:53:16.582Z,0
2016-08-24T03:54:16.075Z,0
2016-08-24T03:55:16.567Z,0
2016-08-24T03:56:16.556Z,0
2016-08-24T03:57:16.555Z,0
2016-08-24T03:58:15.836Z,4
2016-08-24T03:59:16.532Z,0
2016-08-24T04:00:16.528Z,0
2016-08-24T04:01:16.523Z,4
2016-08-24T04:02:15.089Z,4
2016-08-24T04:03:17.217Z,4
2016-08-24T04:04:15.829Z,8
2016-08-24T04:05:15.061Z,4
2016-08-24T04:06:16.467Z,8
2016-08-24T04:07:15.756Z,8
2016-08-24T04:08:15.753Z,8
2016-08-24T04:09:16.461Z,12
2016-08-24T04:10:17.158Z,16
2016-08-24T04:11:16.431Z,16
2016-08-24T04:12:15.727Z,20
2016-08-24T04:13:14.991Z,24
2016-08-24T04:14:15.692Z,28
2016-08-24T04:15:15.700Z,28
2016-08-24T04:16:17.089Z,36
2016-08-24T04:17:14.974Z,36
2016-08-24T04:18:15.656Z,44
2016-08-24T04:19:17.066Z,52
2016-08-24T04:20:15.638Z,60
2016-08-24T04:21:15.627Z,64
2016-08-24T04:22:16.320Z,72
2016-08-24T04:23:16.314Z,84
2016-08-24T04:24:15.607Z,92
2016-08-24T04:25:15.613Z,100
2016-08-24T04:26:15.584Z,116
2016-08-24T04:27:14.868Z,124
2016-08-24T04:28:15.562Z,140
2016-08-24T04:29:15.559Z,152
2016-08-24T04:30:14.837Z,168
2016-08-24T04:31:15.534Z,184
2016-08-24T04:32:15.548Z,196
2016-08-24T04:33:16.238Z,216
2016-08-24T04:34:15.511Z,228
2016-08-24T04:35:15.518Z,248
2016-08-24T04:36:15.507Z,264
2016-08-24T04:37:15.483Z,284
2016-08-24T04:38:14.766Z,304
2016-08-24T04:39:16.167Z,320
2016-08-24T04:40:15.454Z,340
2016-08-24T04:41:15.445Z,360
2016-08-24T04:42:16.139Z,380
2016-08-24T04:43:15.429Z,396
2016-08-24T04:44:17.193Z,420
2016-08-24T04:45:16.849Z,440
2016-08-24T04:46:15.416Z,456
2016-08-24T04:47:14.697Z,476
2016-08-24T04:48:15.384Z,496
2016-08-24T04:49:14.662Z,516
2016-08-24T04:50:14.659Z,536
2016-08-24T04:51:15.368Z,556
2016-08-24T04:52:16.056Z,572
2016-08-24T04:53:16.757Z,596
2016-08-24T04:54:14.631Z,612
2016-08-24T04:55:16.031Z,628
2016-08-24T04:56:16.019Z,648
2016-08-24T04:57:14.590Z,668
2016-08-24T04:58:15.999Z,684
2016-08-24T04:59:15.277Z,704
2016-08-24T05:00:15.275Z,716
2016-08-24T05:01:16.695Z,732
2016-08-24T05:02:14.546Z,752
2016-08-24T05:03:15.973Z,768
2016-08-24T05:04:15.942Z,784
2016-08-24T05:05:14.514Z,800
2016-08-24T05:06:15.219Z,816
2016-08-24T05:07:15.926Z,832
2016-08-24T05:08:14.489Z,844
2016-08-24T05:09:15.903Z,860
2016-08-24T05:10:15.194Z,876
2016-08-24T05:11:14.459Z,892
2016-08-24T05:12:15.887Z,904
2016-08-24T05:13:15.154Z,916
2016-08-24T05:14:15.140Z,932
2016-08-24T05:15:15.142Z,940
2016-08-24T05:16:15.133Z,956
2016-08-24T05:17:15.823Z,968
2016-08-24T05:18:14.404Z,980
2016-08-24T05:19:15.107Z,996
2016-08-24T05:20:15.093Z,1004
2016-08-24T05:21:15.096Z,1016
2016-08-24T05:22:14.369Z,1024
2016-08-24T05:23:15.771Z,1040
2016-08-24T05:24:15.764Z,1048
2016-08-24T05:25:15.050Z,1060
2016-08-24T05:26:15.033Z,1072
2016-08-24T05:27:14.323Z,1080
2016-08-24T05:28:15.025Z,1092
2016-08-24T05:29:15.006Z,1104
2016-08-24T05:30:16.001Z,1112
2016-08-24T05:31:15.714Z,1120
2016-08-24T05:32:15.694Z,1128
2016-08-24T05:33:15.687Z,1140
2016-08-24T05:34:15.684Z,1148
2016-08-24T05:35:15.664Z,1156
2016-08-24T05:36:14.943Z,1164
2016-08-24T05:37:16.358Z,1176
2016-08-24T05:38:15.653Z,1180
2016-08-24T05:39:15.634Z,1192
2016-08-24T05:40:16.398Z,1200
2016-08-24T05:41:14.931Z,1208
2016-08-24T05:42:14.902Z,1216
2016-08-24T05:43:14.889Z,1224
2016-08-24T05:44:16.299Z,1228
2016-08-24T05:45:15.580Z,1240
2016-08-24T05:46:14.873Z,1248
2016-08-24T05:47:14.858Z,1252
2016-08-24T05:48:15.562Z,1260
2016-08-24T05:49:15.542Z,1268
2016-08-24T05:50:15.544Z,1272
2016-08-24T05:51:14.819Z,1280
2016-08-24T05:52:14.108Z,1288
2016-08-24T05:53:14.805Z,1292
2016-08-24T05:54:14.993Z,1300
2016-08-24T05:55:14.792Z,1308
2016-08-24T05:56:14.062Z,1312
2016-08-24T05:57:14.786Z,1320
2016-08-24T05:58:14.757Z,1328
2016-08-24T05:59:14.052Z,1332
2016-08-24T06:00:15.444Z,1340
2016-08-24T06:01:14.742Z,1344
2016-08-24T06:02:14.730Z,1348
2016-08-24T06:03:15.435Z,1356
2016-08-24T06:04:15.415Z,1360
2016-08-24T06:05:13.994Z,1368
2016-08-24T06:06:14.688Z,1372
2016-08-24T06:07:15.399Z,1380
2016-08-24T06:08:15.381Z,1380
2016-08-24T06:09:13.956Z,1388
2016-08-24T06:10:14.657Z,1392
2016-08-24T06:11:14.649Z,1396
2016-08-24T06:12:14.661Z,1400
2016-08-24T06:13:13.925Z,1404
2016-08-24T06:14:14.629Z,1412
2016-08-24T06:15:13.907Z,1416
2016-08-24T06:16:14.607Z,1424
2016-08-24T06:17:14.610Z,1428
2016-08-24T06:18:13.894Z,1432
2016-08-24T06:19:13.890Z,1436
2016-08-24T06:20:14.574Z,1444
2016-08-24T06:21:14.562Z,1448
2016-08-24T06:22:14.560Z,1456
2016-08-24T06:23:14.557Z,1460
2016-08-24T06:24:14.544Z,1464
2016-08-24T06:25:13.832Z,1472
2016-08-24T06:26:14.530Z,1472
2016-08-24T06:27:14.538Z,1476
2016-08-24T06:28:15.225Z,1480
2016-08-24T06:29:14.496Z,1488
2016-08-24T06:30:14.496Z,1492
2016-08-24T06:31:14.489Z,1496
2016-08-24T06:32:15.188Z,1500
2016-08-24T06:33:15.175Z,1504
2016-08-24T06:34:15.184Z,1508
2016-08-24T06:35:13.744Z,1512
2016-08-24T06:36:14.442Z,1516
2016-08-24T06:37:14.440Z,1520
2016-08-24T06:38:14.425Z,1528
2016-08-24T06:39:14.418Z,1532
2016-08-24T06:40:14.418Z,1532
2016-08-24T06:41:14.410Z,1536
2016-08-24T06:42:15.817Z,1540
2016-08-24T06:43:13.684Z,1548
2016-08-24T06:44:15.095Z,1548
2016-08-24T06:45:15.087Z,1556
2016-08-24T06:46:13.667Z,1560
2016-08-24T06:47:13.654Z,1564
2016-08-24T06:48:14.363Z,1568
2016-08-24T06:49:15.764Z,1572
2016-08-24T06:50:14.340Z,1576
2016-08-24T06:51:15.043Z,1580
2016-08-24T06:52:14.328Z,1588
2016-08-24T06:53:15.027Z,1592
2016-08-24T06:54:13.610Z,1596
2016-08-24T06:55:13.591Z,1600
2016-08-24T06:56:14.999Z,1600
2016-08-24T06:57:13.577Z,1608
2016-08-24T06:58:13.579Z,1608
2016-08-24T06:59:14.282Z,1616
2016-08-24T07:00:14.276Z,1620
2016-08-24T07:01:14.269Z,1624
2016-08-24T07:02:14.266Z,1628
2016-08-24T07:03:14.272Z,1636
2016-08-24T07:04:14.967Z,1636
2016-08-24T07:05:14.235Z,1636
2016-08-24T07:06:14.235Z,1644
2016-08-24T07:07:14.929Z,1648
2016-08-24T07:08:14.209Z,1652
2016-08-24T07:09:14.906Z,1656
2016-08-24T07:10:13.490Z,1660
2016-08-24T07:11:15.593Z,1668
2016-08-24T07:12:14.178Z,1672
2016-08-24T07:13:14.175Z,1672
2016-08-24T07:14:14.165Z,1680
2016-08-24T07:15:14.880Z,1680
2016-08-24T07:16:14.150Z,1688
2016-08-24T07:17:14.141Z,1696
2016-08-24T07:18:13.429Z,1696
2016-08-24T07:19:13.420Z,1700
2016-08-24T07:20:14.119Z,1708
2016-08-24T07:21:15.532Z,1712
2016-08-24T07:22:14.109Z,1720
2016-08-24T07:23:14.097Z,1720
2016-08-24T07:24:13.388Z,1724
2016-08-24T07:25:14.797Z,1728
2016-08-24T07:26:14.085Z,1736
2016-08-24T07:27:14.777Z,1740
2016-08-24T07:28:14.775Z,1744
2016-08-24T07:29:14.762Z,1748
2016-08-24T07:30:14.064Z,1756
2016-08-24T07:31:14.050Z,1756
2016-08-24T07:32:14.042Z,1752
2016-08-24T07:33:13.323Z,1760
2016-08-24T07:34:14.025Z,1764
2016-08-24T07:35:14.013Z,1768
2016-08-24T07:36:14.724Z,1776
2016-08-24T07:37:13.305Z,1776
2016-08-24T07:38:14.711Z,1776
2016-08-24T07:39:13.998Z,1784
2016-08-24T07:40:14.693Z,1788
2016-08-24T07:41:13.268Z,1792
2016-08-24T07:42:14.680Z,1792
2016-08-24T07:43:13.265Z,1800
2016-08-24T07:44:13.964Z,1804
2016-08-24T07:45:13.952Z,1812
2016-08-24T07:46:14.655Z,1820
2016-08-24T07:47:14.672Z,1824
2016-08-24T07:48:13.228Z,1824
2016-08-24T07:49:13.929Z,1828
2016-08-24T07:50:13.933Z,1828
2016-08-24T07:51:13.909Z,1840
2016-08-24T07:52:13.912Z,1840
2016-08-24T07:53:13.907Z,1848
2016-08-24T07:54:14.097Z,1852
2016-08-24T07:55:14.595Z,1856
2016-08-24T07:56:13.892Z,1880
2016-08-24T07:57:13.876Z,1928
2016-08-24T07:58:15.294Z,1968
2016-08-24T07:59:13.865Z,1996
2016-08-24T08:00:13.150Z,2032
2016-08-24T08:01:14.568Z,2084
2016-08-24T08:02:14.552Z,2144
2016-08-24T08:03:14.542Z,2212
2016-08-24T08:04:13.839Z,2284
2016-08-24T08:05:13.121Z,2356
2016-08-24T08:06:13.829Z,2480
2016-08-24T08:07:13.110Z,2572
2016-08-24T08:08:13.102Z,2616
2016-08-24T08:09:13.806Z,2644
2016-08-24T08:10:13.797Z,2668
2016-08-24T08:11:14.505Z,2712
2016-08-24T08:12:14.490Z,2776
2016-08-24T08:13:13.782Z,2848
2016-08-24T08:14:13.771Z,5200
2016-08-24T08:15:14.473Z,24896
2016-08-24T08:16:13.870Z,40096
2016-08-24T08:17:14.470Z,41344
2016-08-24T08:18:13.754Z,39648
2016-08-24T08:19:13.043Z,31616
2016-08-24T08:20:13.032Z,21184
2016-08-24T08:21:13.737Z,5488
2016-08-24T08:22:13.739Z,3428
2016-08-24T08:23:13.014Z,3520
2016-08-24T08:24:13.721Z,8124
2016-08-24T08:25:14.424Z,11836
2016-08-24T08:26:13.000Z,12052
2016-08-24T08:27:13.002Z,12420
2016-08-24T08:28:13.703Z,13060
2016-08-24T08:29:14.402Z,13076
2016-08-24T08:30:12.986Z,12884
2016-08-24T08:31:13.691Z,16160
2016-08-24T08:32:13.680Z,20736
2016-08-24T08:33:13.683Z,24320
2016-08-24T08:34:12.977Z,22752
2016-08-24T08:35:14.376Z,20064
2016-08-24T08:36:12.967Z,14712
2016-08-24T08:37:13.667Z,11436
2016-08-24T08:38:12.950Z,10780
2016-08-24T08:39:13.654Z,8592
2016-08-24T08:40:12.948Z,7508
2016-08-24T08:41:13.642Z,10088
2016-08-24T08:42:13.644Z,5332
2016-08-24T08:43:12.931Z,3780
2016-08-24T08:44:12.926Z,3780
2016-08-24T08:45:12.925Z,3044
2016-08-24T08:46:14.340Z,2604
2016-08-24T08:47:12.939Z,2560
2016-08-24T08:48:12.915Z,2576
2016-08-24T08:49:13.617Z,2560
2016-08-24T08:50:14.322Z,2384
2016-08-24T08:51:14.329Z,2356
2016-08-24T08:52:13.614Z,2356
2016-08-24T08:53:13.595Z,2432
2016-08-24T08:54:13.593Z,2532
2016-08-24T08:55:13.589Z,2440
2016-08-24T08:56:14.301Z,2576
2016-08-24T08:57:14.289Z,3228
2016-08-24T08:58:13.583Z,3640
2016-08-24T08:59:12.868Z,3508
2016-08-24T09:00:13.564Z,3748
2016-08-24T09:01:13.563Z,2612
2016-08-24T09:02:13.556Z,3080
2016-08-24T09:03:12.854Z,2732
2016-08-24T09:04:12.847Z,2544
2016-08-24T09:05:14.252Z,2840
2016-08-24T09:06:13.548Z,4480
2016-08-24T09:07:13.537Z,9040
2016-08-24T09:08:14.947Z,16640
2016-08-24T09:09:12.814Z,25440
2016-08-24T09:10:14.242Z,19264
2016-08-24T09:11:14.943Z,10164
2016-08-24T09:12:13.519Z,25152
2016-08-24T09:13:12.802Z,31520
2016-08-24T09:14:13.510Z,29056
2016-08-24T09:15:13.504Z,14040
2016-08-24T09:16:13.548Z,3000
2016-08-24T09:17:14.204Z,7308
2016-08-24T09:18:12.787Z,7884
2016-08-24T09:19:14.192Z,7420
2016-08-24T09:20:12.773Z,8644
2016-08-24T09:21:12.771Z,6076
2016-08-24T09:22:12.761Z,5864
2016-08-24T09:23:14.178Z,3484
2016-08-24T09:24:13.472Z,2600
2016-08-24T09:25:13.461Z,2920
2016-08-24T09:26:14.161Z,3416
2016-08-24T09:27:12.744Z,2860
2016-08-24T09:28:14.149Z,4240
2016-08-24T09:29:13.443Z,3492
2016-08-24T09:30:12.728Z,2620
2016-08-24T09:31:12.729Z,3412
2016-08-24T09:32:13.437Z,3392
2016-08-24T09:33:13.432Z,12712
2016-08-24T09:34:13.420Z,18240
2016-08-24T09:35:12.708Z,10540
2016-08-24T09:36:13.411Z,3956
2016-08-24T09:37:13.410Z,3040
2016-08-24T09:38:12.690Z,2644
2016-08-24T09:39:12.701Z,2488
2016-08-24T09:40:13.393Z,2568
2016-08-24T09:41:13.384Z,2476
2016-08-24T09:42:14.098Z,2468
2016-08-24T09:43:13.385Z,2484
2016-08-24T09:44:14.086Z,2496
2016-08-24T09:45:12.662Z,2512
2016-08-24T09:46:12.658Z,2540
2016-08-24T09:47:13.355Z,2540
2016-08-24T09:48:13.365Z,2608
2016-08-24T09:49:14.066Z,2572
2016-08-24T09:50:13.345Z,2592
2016-08-24T09:51:12.636Z,2644
2016-08-24T09:52:13.340Z,2632
2016-08-24T09:53:13.332Z,2700
2016-08-24T09:54:13.732Z,2716
2016-08-24T09:55:12.620Z,2724
2016-08-24T09:56:12.616Z,3372
2016-08-24T09:57:14.025Z,3296
2016-08-24T09:58:13.316Z,3592
2016-08-24T09:59:12.597Z,3832
2016-08-24T10:00:14.011Z,3860
2016-08-24T10:01:14.008Z,3212
2016-08-24T10:02:12.601Z,3452
2016-08-24T10:03:13.595Z,4716
2016-08-24T10:04:14.005Z,4748
2016-08-24T10:05:14.700Z,2940
2016-08-24T10:06:13.285Z,2932
2016-08-24T10:07:12.581Z,2952
2016-08-24T10:08:14.686Z,2968
2016-08-24T10:09:13.260Z,8592
2016-08-24T10:10:13.970Z,10476
2016-08-24T10:11:13.251Z,3004
2016-08-24T10:12:13.244Z,3140
2016-08-24T10:13:13.950Z,3064
2016-08-24T10:14:13.947Z,3120
2016-08-24T10:15:13.944Z,4452
2016-08-24T10:16:13.228Z,4404
2016-08-24T10:17:13.936Z,4060
2016-08-24T10:18:13.219Z,3760
2016-08-24T10:19:14.630Z,3368
2016-08-24T10:20:13.210Z,3664
2016-08-24T10:21:13.297Z,3684
2016-08-24T10:22:13.201Z,4088
2016-08-24T10:23:13.195Z,4956
2016-08-24T10:24:13.900Z,4984
2016-08-24T10:25:13.188Z,4244
2016-08-24T10:26:12.497Z,4892
2016-08-24T10:27:13.888Z,3988
2016-08-24T10:28:12.469Z,3892
2016-08-24T10:29:13.877Z,3804
2016-08-24T10:30:12.463Z,3836
2016-08-24T10:31:12.450Z,6560
2016-08-24T10:32:13.159Z,4748
2016-08-24T10:33:13.152Z,5324
2016-08-24T10:34:13.864Z,6044
2016-08-24T10:35:12.439Z,6640
2016-08-24T10:36:12.432Z,6924
2016-08-24T10:37:14.553Z,7096
2016-08-24T10:38:12.424Z,9848
2016-08-24T10:39:13.835Z,10052
2016-08-24T10:40:12.419Z,7256
2016-08-24T10:41:13.820Z,7380
2016-08-24T10:42:13.121Z,7848
2016-08-24T10:43:13.129Z,7320
2016-08-24T10:44:12.408Z,7668
2016-08-24T10:45:13.810Z,7616
2016-08-24T10:46:13.807Z,9800
2016-08-24T10:47:13.101Z,13164
2016-08-24T10:48:12.388Z,22080
2016-08-24T10:49:12.387Z,10456
2016-08-24T10:50:13.080Z,8384
2016-08-24T10:51:13.081Z,11300
2016-08-24T10:52:13.790Z,17248
2016-08-24T10:53:14.489Z,22912
2016-08-24T10:54:13.788Z,30080
2016-08-24T10:55:13.779Z,25056
2016-08-24T10:56:13.771Z,31232
2016-08-24T10:57:13.775Z,54464
2016-08-24T10:58:13.760Z,58368
2016-08-24T10:59:13.774Z,42080
2016-08-24T11:00:13.056Z,23424
2016-08-24T11:01:13.756Z,15720
2016-08-24T11:02:13.055Z,19648
2016-08-24T11:03:13.055Z,11752
2016-08-24T11:04:13.772Z,8872
2016-08-24T11:05:12.334Z,17056
2016-08-24T11:06:13.042Z,36768
2016-08-24T11:07:13.751Z,45344
2016-08-24T11:08:13.746Z,70784
2016-08-24T11:09:13.092Z,74560
2016-08-24T11:10:13.041Z,65792
2016-08-24T11:11:13.039Z,58208
2016-08-24T11:12:13.032Z,74144
2016-08-24T11:13:13.748Z,73696
2016-08-24T11:14:13.058Z,78272
2016-08-24T11:15:13.048Z,77248
2016-08-24T11:16:13.041Z,86464
2016-08-24T11:17:12.326Z,91328
2016-08-24T11:18:13.051Z,93952
2016-08-24T11:19:12.339Z,94272
2016-08-24T11:20:13.052Z,92736
2016-08-24T11:21:13.759Z,89280
2016-08-24T11:22:13.769Z,84544
2016-08-24T11:23:13.772Z,79872
2016-08-24T11:24:12.356Z,75424
2016-08-24T11:25:13.774Z,71872
2016-08-24T11:26:13.781Z,69856
2016-08-24T11:27:13.084Z,70208
2016-08-24T11:28:13.790Z,73536
2016-08-24T11:29:13.080Z,75104
2016-08-24T11:30:13.795Z,76160
2016-08-24T11:31:12.383Z,77216
2016-08-24T11:32:13.103Z,80064
2016-08-24T11:33:13.112Z,83776
2016-08-24T11:34:13.824Z,85568
2016-08-24T11:35:13.114Z,86368
2016-08-24T11:36:12.415Z,85248
2016-08-24T11:37:12.413Z,81376
2016-08-24T11:38:13.834Z,76864
2016-08-24T11:39:13.830Z,76128
2016-08-24T11:40:12.449Z,75136
2016-08-24T11:41:13.140Z,75360
2016-08-24T11:42:13.141Z,78688
2016-08-24T11:43:12.496Z,85056
2016-08-24T11:44:13.164Z,91488
2016-08-24T11:45:13.172Z,97856
2016-08-24T11:46:13.164Z,100544
2016-08-24T11:47:12.466Z,100992
2016-08-24T11:48:13.181Z,98400
2016-08-24T11:49:12.479Z,94592
2016-08-24T11:50:13.901Z,88896
2016-08-24T11:51:13.199Z,84992
2016-08-24T11:52:13.963Z,82752
2016-08-24T11:53:13.211Z,81408
2016-08-24T11:54:12.509Z,84960
2016-08-24T11:55:14.650Z,88384
2016-08-24T11:56:13.238Z,92544
2016-08-24T11:57:13.234Z,97376
2016-08-24T11:58:14.004Z,101152
2016-08-24T11:59:13.979Z,102272
2016-08-24T12:00:12.575Z,101632
2016-08-24T12:01:12.566Z,99136
2016-08-24T12:02:13.273Z,96480
2016-08-24T12:03:13.996Z,93600
2016-08-24T12:04:14.758Z,91232
2016-08-24T12:05:12.591Z,92288
2016-08-24T12:06:14.014Z,95104
2016-08-24T12:07:13.312Z,98080
2016-08-24T12:08:12.611Z,101024
2016-08-24T12:09:12.670Z,103648
2016-08-24T12:10:14.759Z,104512
2016-08-24T12:11:13.343Z,103776
2016-08-24T12:12:13.355Z,102944
2016-08-24T12:13:13.361Z,101248
2016-08-24T12:14:14.078Z,99136
2016-08-24T12:15:14.079Z,97760
2016-08-24T12:16:13.378Z,97280
2016-08-24T12:17:13.385Z,96160
2016-08-24T12:18:12.689Z,95968
2016-08-24T12:19:13.414Z,95168
2016-08-24T12:20:12.702Z,93728
2016-08-24T12:21:13.443Z,92224
2016-08-24T12:22:14.402Z,90560
2016-08-24T12:23:14.904Z,88672
2016-08-24T12:24:13.451Z,87200
2016-08-24T12:25:12.751Z,86400
2016-08-24T12:26:13.479Z,86560
2016-08-24T12:27:13.489Z,87296
2016-08-24T12:28:14.195Z,88384
2016-08-24T12:29:12.784Z,87072
2016-08-24T12:30:13.502Z,86240
2016-08-24T12:31:13.520Z,88352
2016-08-24T12:32:14.221Z,92992
2016-08-24T12:33:13.527Z,97408
2016-08-24T12:34:14.236Z,99232
2016-08-24T12:35:13.556Z,98880
2016-08-24T12:36:13.553Z,97888
2016-08-24T12:37:12.852Z,94336
2016-08-24T12:38:13.563Z,91232
2016-08-24T12:39:14.286Z,89056
2016-08-24T12:40:14.295Z,92640
2016-08-24T12:41:14.303Z,96992
2016-08-24T12:42:14.332Z,98720
2016-08-24T12:43:14.324Z,103712
2016-08-24T12:44:12.910Z,104800
2016-08-24T12:45:13.638Z,102528
2016-08-24T12:46:15.058Z,98848
2016-08-24T12:47:13.654Z,95584
2016-08-24T12:48:15.069Z,92448
2016-08-24T12:49:13.677Z,89536
2016-08-24T12:50:12.966Z,89120
2016-08-24T12:51:12.972Z,89664
2016-08-24T12:52:15.126Z,91552
2016-08-24T12:53:13.708Z,92672
2016-08-24T12:54:12.998Z,93280
2016-08-24T12:55:15.126Z,93696
2016-08-24T12:56:13.728Z,93152
2016-08-24T12:57:14.477Z,92928
2016-08-24T12:58:14.462Z,93408
2016-08-24T12:59:13.760Z,94592
2016-08-24T13:00:15.175Z,94624
2016-08-24T13:01:14.482Z,93344
2016-08-24T13:02:13.768Z,89184
2016-08-24T13:03:13.785Z,84512
2016-08-24T13:04:14.505Z,80416
2016-08-24T13:05:14.508Z,77536
2016-08-24T13:06:14.521Z,76224
2016-08-24T13:07:14.520Z,76416
2016-08-24T13:08:13.821Z,76608
2016-08-24T13:09:13.173Z,77984
2016-08-24T13:10:14.561Z,80000
2016-08-24T13:11:13.859Z,83840
2016-08-24T13:12:13.864Z,86176
2016-08-24T13:13:13.893Z,85216
2016-08-24T13:14:13.878Z,85408
2016-08-24T13:15:14.585Z,86496
2016-08-24T13:16:13.892Z,86848
2016-08-24T13:17:13.902Z,86304
2016-08-24T13:18:13.212Z,85152
2016-08-24T13:19:14.624Z,86592
2016-08-24T13:20:13.926Z,83936
2016-08-24T13:21:13.947Z,79104
2016-08-24T13:22:13.938Z,74400
2016-08-24T13:23:13.961Z,72000
2016-08-24T13:24:14.668Z,70304
2016-08-24T13:25:13.963Z,69920
2016-08-24T13:26:13.975Z,72736
2016-08-24T13:27:13.983Z,77792
2016-08-24T13:28:14.697Z,80448
2016-08-24T13:29:13.283Z,79680
2016-08-24T13:30:15.476Z,79360
2016-08-24T13:31:13.301Z,78432
2016-08-24T13:32:14.021Z,77760
2016-08-24T13:33:14.029Z,77728
2016-08-24T13:34:14.029Z,77856
2016-08-24T13:35:14.767Z,79616
2016-08-24T13:36:14.041Z,80672
2016-08-24T13:37:15.463Z,80128
2016-08-24T13:38:14.773Z,80160